createdAt,value
2018-12-21T00:00:58.988Z,100321.05
2018-12-21T00:02:01.541Z,100315.32
2018-12-21T00:03:04.176Z,100313.95
2018-12-21T00:04:06.650Z,100309.02
2018-12-21T00:05:09.147Z,100303.85
2018-12-21T00:06:11.686Z,100300.54
2018-12-21T00:07:14.240Z,100299.73
2018-12-21T00:08:16.734Z,100304.75
2018-12-21T00:09:19.207Z,100295.70
2018-12-21T00:10:21.682Z,100293.52
2018-12-21T00:11:24.162Z,100289.16
2018-12-21T00:12:26.620Z,100291.10
2018-12-21T00:13:29.116Z,100294.17
2018-12-21T00:14:31.576Z,100299.11
2018-12-21T00:15:34.036Z,100294.17
2018-12-21T00:16:36.529Z,100293.37
2018-12-21T00:17:38.997Z,100290.38
2018-12-21T00:18:41.490Z,100289.55
2018-12-21T00:19:43.951Z,100288.73
2018-12-21T00:20:46.425Z,100289.31
2018-12-21T00:21:49.036Z,100286.32
2018-12-21T00:22:51.515Z,100283.30
2018-12-21T00:23:54.033Z,100283.87
2018-12-21T00:24:56.507Z,100277.27
2018-12-21T00:25:58.979Z,100276.20
2018-12-21T00:27:01.436Z,100273.45
2018-12-21T00:28:03.997Z,100271.27
2018-12-21T00:29:06.502Z,100269.89
2018-12-21T00:30:10.592Z,100269.09
2018-12-21T00:31:18.799Z,100269.09
2018-12-21T00:32:26.969Z,100274.58
2018-12-21T00:33:35.287Z,100268.61
2018-12-21T00:34:43.354Z,100271.59
2018-12-21T00:35:51.563Z,100265.62
2018-12-21T00:36:59.750Z,100271.13
2018-12-21T00:38:07.854Z,100264.02
2018-12-21T00:39:15.938Z,100264.02
2018-12-21T00:40:24.032Z,100263.77
2018-12-21T00:41:25.990Z,100259.66
2018-12-21T00:42:40.393Z,100258.52
2018-12-21T00:43:44.860Z,100257.15
2018-12-21T00:44:49.356Z,100261.27
2018-12-21T00:45:53.812Z,100262.55
2018-12-21T00:46:58.247Z,100254.55
2018-12-21T00:48:00.711Z,100249.39
2018-12-21T00:49:03.267Z,100247.77
2018-12-21T00:50:07.888Z,100249.39
2018-12-21T00:51:10.347Z,100240.10
2018-12-21T00:52:12.887Z,100240.34
2018-12-21T00:53:15.376Z,100238.73
2018-12-21T00:54:17.854Z,100235.98
2018-12-21T00:55:20.354Z,100240.67
2018-12-21T00:56:22.829Z,100237.69
2018-12-21T00:57:25.302Z,100237.45
2018-12-21T00:58:27.794Z,100227.59
2018-12-21T00:59:30.256Z,100231.15
2018-12-21T01:00:32.822Z,100226.79
2018-12-21T01:01:35.356Z,100225.41
2018-12-21T01:02:37.841Z,100225.98
2018-12-21T01:03:40.329Z,100221.86
2018-12-21T01:04:42.871Z,100231.47
2018-12-21T01:05:45.366Z,100227.69
2018-12-21T01:06:47.827Z,100226.31
2018-12-21T01:07:50.381Z,100225.50
2018-12-21T01:08:52.903Z,100232.61
2018-12-21T01:09:55.361Z,100229.63
2018-12-21T01:10:57.869Z,100227.45
2018-12-21T01:12:01.132Z,100228.02
2018-12-21T01:13:03.660Z,100229.30
2018-12-21T01:14:06.134Z,100230.10
2018-12-21T01:15:08.724Z,100235.27
2018-12-21T01:16:11.203Z,100233.09
2018-12-21T01:17:13.681Z,100231.95
2018-12-21T01:18:16.222Z,100226.70
2018-12-21T01:19:18.766Z,100223.95
2018-12-21T01:20:21.586Z,100222.58
2018-12-21T01:21:24.113Z,100229.69
2018-12-21T01:22:26.788Z,100226.38
2018-12-21T01:23:29.396Z,100228.31
2018-12-21T01:24:31.870Z,100228.55
2018-12-21T01:25:34.492Z,100224.43
2018-12-21T01:26:36.971Z,100224.43
2018-12-21T01:27:39.525Z,100215.15
2018-12-21T01:28:42.002Z,100224.76
2018-12-21T01:29:44.504Z,100218.46
2018-12-21T01:30:46.968Z,100219.27
2018-12-21T01:31:49.476Z,100218.46
2018-12-21T01:32:51.955Z,100213.20
2018-12-21T01:33:54.444Z,100215.15
2018-12-21T01:34:56.918Z,100203.92
2018-12-21T01:35:59.534Z,100207.48
2018-12-21T01:37:02.026Z,100208.84
2018-12-21T01:38:04.596Z,100205.86
2018-12-21T01:39:07.166Z,100203.12
2018-12-21T01:40:09.771Z,100200.38
2018-12-21T01:41:12.260Z,100204.25
2018-12-21T01:42:14.747Z,100198.52
2018-12-21T01:43:17.250Z,100198.52
2018-12-21T01:44:19.729Z,100203.20
2018-12-21T01:45:22.338Z,100202.08
2018-12-21T01:46:24.818Z,100204.58
2018-12-21T01:47:27.497Z,100207.56
2018-12-21T01:48:29.970Z,100205.63
2018-12-21T01:49:32.492Z,100200.46
2018-12-21T01:50:34.982Z,100198.28
2018-12-21T01:51:37.475Z,100199.89
2018-12-21T01:52:39.967Z,100203.20
2018-12-21T01:53:42.460Z,100196.91
2018-12-21T01:54:44.942Z,100197.15
2018-12-21T01:55:47.404Z,100192.80
2018-12-21T01:56:49.882Z,100194.16
2018-12-21T01:57:52.386Z,100182.38
2018-12-21T01:58:54.836Z,100184.88
2018-12-21T01:59:57.306Z,100177.21
2018-12-21T02:00:59.771Z,100181.33
2018-12-21T02:02:02.260Z,100171.78
2018-12-21T02:03:04.739Z,100167.98
2018-12-21T02:04:07.206Z,100172.67
2018-12-21T02:05:09.824Z,100171.87
2018-12-21T02:06:12.279Z,100165.57
2018-12-21T02:07:14.739Z,100168.89
2018-12-21T02:08:17.211Z,100172.20
2018-12-21T02:09:19.684Z,100165.91
2018-12-21T02:10:22.185Z,100156.29
2018-12-21T02:11:24.711Z,100162.11
2018-12-21T02:12:27.183Z,100153.31
2018-12-21T02:13:29.704Z,100155.25
2018-12-21T02:14:32.181Z,100147.34
2018-12-21T02:15:34.681Z,100147.34
2018-12-21T02:16:37.176Z,100140.72
2018-12-21T02:17:39.649Z,100147.10
2018-12-21T02:18:42.161Z,100145.73
2018-12-21T02:19:44.640Z,100149.28
2018-12-21T02:20:47.104Z,100143.31
2018-12-21T02:21:55.835Z,100142.98
2018-12-21T02:22:54.163Z,100132.90
2018-12-21T02:23:56.655Z,100135.64
2018-12-21T02:24:59.120Z,100127.41
2018-12-21T02:26:01.704Z,100124.66
2018-12-21T02:27:04.247Z,100118.94
2018-12-21T02:28:06.805Z,100120.31
2018-12-21T02:29:09.308Z,100120.55
2018-12-21T02:30:11.861Z,100118.94
2018-12-21T02:31:14.404Z,100118.37
2018-12-21T02:32:16.878Z,100109.09
2018-12-21T02:33:19.364Z,100109.33
2018-12-21T02:34:22.174Z,100107.72
2018-12-21T02:35:24.646Z,100113.20
2018-12-21T02:36:27.133Z,100099.24
2018-12-21T02:37:29.608Z,100092.38
2018-12-21T02:38:32.082Z,100101.16
2018-12-21T02:39:34.559Z,100101.98
2018-12-21T02:40:37.031Z,100103.09
2018-12-21T02:41:39.502Z,100090.50
2018-12-21T02:42:41.978Z,100089.93
2018-12-21T02:43:44.441Z,100088.33
2018-12-21T02:44:46.953Z,100091.87
2018-12-21T02:45:49.473Z,100089.70
2018-12-21T02:46:51.972Z,100094.62
2018-12-21T02:47:54.448Z,100083.40
2018-12-21T02:48:56.941Z,100079.52
2018-12-21T02:49:59.435Z,100079.28
2018-12-21T02:51:01.930Z,100079.52
2018-12-21T02:52:05.766Z,100077.58
2018-12-21T02:53:08.502Z,100089.13
2018-12-21T02:54:10.966Z,100077.91
2018-12-21T02:55:13.578Z,100072.98
2018-12-21T02:56:16.116Z,100067.27
2018-12-21T02:57:18.639Z,100068.06
2018-12-21T02:58:21.127Z,100063.14
2018-12-21T02:59:23.675Z,100060.97
2018-12-21T03:00:26.170Z,100058.22
2018-12-21T03:01:28.658Z,100056.28
2018-12-21T03:02:31.148Z,100051.92
2018-12-21T03:03:33.641Z,100053.06
2018-12-21T03:04:36.100Z,100050.89
2018-12-21T03:05:38.596Z,100054.20
2018-12-21T03:06:41.071Z,100047.91
2018-12-21T03:07:43.540Z,100053.39
2018-12-21T03:08:46.127Z,100050.41
2018-12-21T03:09:48.659Z,100045.48
2018-12-21T03:10:51.131Z,100043.31
2018-12-21T03:11:53.596Z,100041.38
2018-12-21T03:12:56.072Z,100043.31
2018-12-21T03:13:58.654Z,100032.66
2018-12-21T03:15:01.250Z,100031.53
2018-12-21T03:16:03.905Z,100032.33
2018-12-21T03:17:06.371Z,100035.88
2018-12-21T03:18:08.866Z,100036.45
2018-12-21T03:19:11.442Z,100032.91
2018-12-21T03:20:13.903Z,100033.47
2018-12-21T03:21:16.413Z,100041.94
2018-12-21T03:22:18.909Z,100033.47
2018-12-21T03:23:21.448Z,100032.09
2018-12-21T03:24:23.940Z,100025.23
2018-12-21T03:25:26.419Z,100020.88
2018-12-21T03:26:28.921Z,100019.27
2018-12-21T03:27:31.417Z,100018.13
2018-12-21T03:28:33.883Z,100013.78
2018-12-21T03:29:36.427Z,100009.66
2018-12-21T03:30:38.889Z,100007.25
2018-12-21T03:31:41.399Z,100005.31
2018-12-21T03:32:43.980Z,99995.44
2018-12-21T03:33:46.662Z,99995.44
2018-12-21T03:34:49.147Z,99996.27
2018-12-21T03:35:51.620Z,99997.08
2018-12-21T03:36:54.118Z,99992.70
2018-12-21T03:37:56.586Z,99989.14
2018-12-21T03:38:59.077Z,99986.73
2018-12-21T03:40:01.579Z,99977.13
2018-12-21T03:41:04.161Z,99980.11
2018-12-21T03:42:06.718Z,99975.19
2018-12-21T03:43:09.191Z,99973.34
2018-12-21T03:44:11.650Z,99976.09
2018-12-21T03:45:14.119Z,99972.53
2018-12-21T03:46:16.601Z,99965.44
2018-12-21T03:47:19.072Z,99962.70
2018-12-21T03:48:21.542Z,99964.88
2018-12-21T03:49:24.010Z,99964.64
2018-12-21T03:50:26.477Z,99963.50
2018-12-21T03:51:29.060Z,99959.95
2018-12-21T03:52:31.611Z,99954.23
2018-12-21T03:53:34.085Z,99952.86
2018-12-21T03:54:36.543Z,99952.05
2018-12-21T03:55:39.029Z,99950.68
2018-12-21T03:56:41.526Z,99944.95
2018-12-21T03:57:44.002Z,99944.62
2018-12-21T03:58:46.628Z,99942.11
2018-12-21T03:59:49.104Z,99947.03
2018-12-21T04:00:51.563Z,99939.51
2018-12-21T04:01:54.269Z,99935.89
2018-12-21T04:02:56.741Z,99932.81
2018-12-21T04:03:59.225Z,99923.91
2018-12-21T04:05:01.706Z,99916.72
2018-12-21T04:06:04.193Z,99915.25
2018-12-21T04:07:06.670Z,99915.38
2018-12-21T04:08:09.169Z,99912.30
2018-12-21T04:09:11.643Z,99906.17
2018-12-21T04:10:14.130Z,99902.76
2018-12-21T04:11:16.610Z,99906.78
2018-12-21T04:12:19.074Z,99895.36
2018-12-21T04:13:21.544Z,99895.25
2018-12-21T04:14:24.139Z,99893.01
2018-12-21T04:15:26.628Z,99882.73
2018-12-21T04:16:29.105Z,99885.94
2018-12-21T04:17:31.584Z,99881.72
2018-12-21T04:18:34.082Z,99876.69
2018-12-21T04:19:36.577Z,99877.95
2018-12-21T04:20:39.036Z,99876.51
2018-12-21T04:21:41.491Z,99873.42
2018-12-21T04:22:43.954Z,99874.26
2018-12-21T04:23:46.442Z,99867.86
2018-12-21T04:24:48.907Z,99858.25
2018-12-21T04:25:51.550Z,99852.64
2018-12-21T04:26:54.018Z,99845.78
2018-12-21T04:27:56.486Z,99841.66
2018-12-21T04:28:58.975Z,99848.19
2018-12-21T04:30:01.462Z,99832.27
2018-12-21T04:31:03.952Z,99837.32
2018-12-21T04:32:06.408Z,99827.86
2018-12-21T04:33:08.874Z,99829.36
2018-12-21T04:34:11.347Z,99830.28
2018-12-21T04:35:13.819Z,99822.73
2018-12-21T04:36:16.272Z,99822.66
2018-12-21T04:37:18.762Z,99818.08
2018-12-21T04:38:21.244Z,99820.95
2018-12-21T04:39:23.727Z,99815.80
2018-12-21T04:40:26.373Z,99820.30
2018-12-21T04:41:28.845Z,99810.00
2018-12-21T04:42:31.321Z,99807.02
2018-12-21T04:43:33.819Z,99806.83
2018-12-21T04:44:36.303Z,99803.28
2018-12-21T04:45:38.757Z,99800.19
2018-12-21T04:46:41.223Z,99797.89
2018-12-21T04:47:43.706Z,99795.60
2018-12-21T04:48:46.198Z,99794.69
2018-12-21T04:49:48.699Z,99798.95
2018-12-21T04:50:51.170Z,99795.28
2018-12-21T04:51:53.653Z,99795.74
2018-12-21T04:52:56.140Z,99795.40
2018-12-21T04:53:58.632Z,99803.08
2018-12-21T04:55:01.144Z,99801.58
2018-12-21T04:56:03.629Z,99797.56
2018-12-21T04:57:06.120Z,99793.50
2018-12-21T04:58:08.632Z,99794.30
2018-12-21T04:59:11.234Z,99793.50
2018-12-21T05:00:13.758Z,99799.80
2018-12-21T05:01:16.319Z,99789.02
2018-12-21T05:02:18.893Z,99795.91
2018-12-21T05:03:21.352Z,99797.96
2018-12-21T05:04:23.917Z,99790.52
2018-12-21T05:05:26.400Z,99790.97
2018-12-21T05:06:28.868Z,99791.77
2018-12-21T05:07:31.342Z,99789.36
2018-12-21T05:08:33.886Z,99793.27
2018-12-21T05:09:36.362Z,99795.20
2018-12-21T05:10:38.862Z,99794.98
2018-12-21T05:11:41.326Z,99787.65
2018-12-21T05:12:43.795Z,99783.52
2018-12-21T05:13:46.253Z,99777.31
2018-12-21T05:14:48.750Z,99777.88
2018-12-21T05:15:51.433Z,99776.85
2018-12-21T05:16:53.921Z,99772.02
2018-12-21T05:17:56.401Z,99773.39
2018-12-21T05:18:58.871Z,99767.09
2018-12-21T05:20:01.367Z,99761.02
2018-12-21T05:21:03.962Z,99760.70
2018-12-21T05:22:06.460Z,99759.20
2018-12-21T05:23:08.943Z,99755.88
2018-12-21T05:24:11.410Z,99746.60
2018-12-21T05:25:13.877Z,99746.25
2018-12-21T05:26:16.405Z,99748.69
2018-12-21T05:27:18.882Z,99745.68
2018-12-21T05:28:21.336Z,99743.19
2018-12-21T05:29:23.787Z,99733.56
2018-12-21T05:30:26.253Z,99732.50
2018-12-21T05:31:28.809Z,99729.88
2018-12-21T05:32:31.354Z,99720.81
2018-12-21T05:33:33.853Z,99721.70
2018-12-21T05:34:36.339Z,99726.19
2018-12-21T05:35:38.799Z,99714.50
2018-12-21T05:36:41.355Z,99710.15
2018-12-21T05:37:43.838Z,99707.41
2018-12-21T05:38:46.312Z,99708.88
2018-12-21T05:39:48.803Z,99698.91
2018-12-21T05:40:51.278Z,99695.14
2018-12-21T05:41:53.766Z,99694.34
2018-12-21T05:42:56.246Z,99686.32
2018-12-21T05:43:58.722Z,99679.67
2018-12-21T05:45:01.199Z,99681.30
2018-12-21T05:46:03.748Z,99680.25
2018-12-21T05:47:06.238Z,99679.56
2018-12-21T05:48:08.794Z,99672.69
2018-12-21T05:49:11.297Z,99678.77
2018-12-21T05:50:13.969Z,99675.76
2018-12-21T05:51:16.424Z,99670.61
2018-12-21T05:52:19.472Z,99670.95
2018-12-21T05:53:22.025Z,99658.35
2018-12-21T05:54:24.499Z,99648.28
2018-12-21T05:55:26.958Z,99640.03
2018-12-21T05:56:29.433Z,99641.41
2018-12-21T05:57:31.944Z,99638.88
2018-12-21T05:58:34.429Z,99628.80
2018-12-21T05:59:36.925Z,99630.75
2018-12-21T06:00:39.381Z,99628.45
2018-12-21T06:01:41.831Z,99619.28
2018-12-21T06:02:44.296Z,99623.05
2018-12-21T06:03:46.758Z,99618.00
2018-12-21T06:04:49.225Z,99612.28
2018-12-21T06:05:51.699Z,99611.70
2018-12-21T06:06:54.191Z,99602.66
2018-12-21T06:07:56.672Z,99612.86
2018-12-21T06:08:59.125Z,99613.08
2018-12-21T06:10:01.630Z,99610.91
2018-12-21T06:11:04.080Z,99610.68
2018-12-21T06:12:06.543Z,99612.05
2018-12-21T06:13:09.161Z,99601.28
2018-12-21T06:14:11.630Z,99599.91
2018-12-21T06:15:14.087Z,99599.91
2018-12-21T06:16:16.551Z,99599.33
2018-12-21T06:17:19.026Z,99591.56
2018-12-21T06:18:21.575Z,99594.88
2018-12-21T06:19:24.122Z,99592.36
2018-12-21T06:20:26.666Z,99600.26
2018-12-21T06:21:29.150Z,99583.53
2018-12-21T06:22:31.646Z,99583.19
2018-12-21T06:23:34.324Z,99575.95
2018-12-21T06:24:36.798Z,99585.04
2018-12-21T06:25:39.360Z,99577.02
2018-12-21T06:26:41.947Z,99579.53
2018-12-21T06:27:44.636Z,99580.34
2018-12-21T06:28:47.135Z,99571.28
2018-12-21T06:29:49.596Z,99580.34
2018-12-21T06:30:52.070Z,99570.45
2018-12-21T06:31:54.552Z,99569.66
2018-12-21T06:32:57.028Z,99561.98
2018-12-21T06:33:59.577Z,99559.58
2018-12-21T06:35:02.058Z,99556.26
2018-12-21T06:36:04.506Z,99552.70
2018-12-21T06:37:06.980Z,99551.33
2018-12-21T06:38:09.436Z,99541.93
2018-12-21T06:39:11.922Z,99539.66
2018-12-21T06:40:14.397Z,99536.91
2018-12-21T06:41:16.882Z,99528.87
2018-12-21T06:42:19.362Z,99529.10
2018-12-21T06:43:21.846Z,99524.98
2018-12-21T06:44:24.331Z,99529.45
2018-12-21T06:45:26.816Z,99533.80
2018-12-21T06:46:29.300Z,99528.87
2018-12-21T06:47:31.857Z,99527.50
2018-12-21T06:48:34.312Z,99524.40
2018-12-21T06:49:36.784Z,99521.87
2018-12-21T06:50:39.269Z,99526.58
2018-12-21T06:51:41.744Z,99512.95
2018-12-21T06:52:44.233Z,99514.66
2018-12-21T06:53:46.716Z,99511.58
2018-12-21T06:54:49.323Z,99508.13
2018-12-21T06:55:51.962Z,99514.42
2018-12-21T06:56:54.430Z,99509.15
2018-12-21T06:57:56.894Z,99493.45
2018-12-21T06:58:59.364Z,99503.33
2018-12-21T07:00:01.873Z,99501.59
2018-12-21T07:01:04.431Z,99498.63
2018-12-21T07:02:06.902Z,99494.95
2018-12-21T07:03:16.907Z,99497.34
2018-12-21T07:04:13.866Z,99491.97
2018-12-21T07:05:16.403Z,99494.50
2018-12-21T07:06:18.878Z,99502.40
2018-12-21T07:07:21.721Z,99496.67
2018-12-21T07:08:24.386Z,99488.52
2018-12-21T07:09:26.890Z,99487.62
2018-12-21T07:10:29.985Z,99495.30
2018-12-21T07:11:32.489Z,99488.78
2018-12-21T07:12:34.954Z,99489.67
2018-12-21T07:13:37.444Z,99484.40
2018-12-21T07:14:39.956Z,99480.05
2018-12-21T07:15:42.423Z,99480.27
2018-12-21T07:16:44.895Z,99484.97
2018-12-21T07:17:47.351Z,99485.09
2018-12-21T07:18:49.807Z,99475.47
2018-12-21T07:19:52.339Z,99481.55
2018-12-21T07:20:54.806Z,99481.77
2018-12-21T07:21:57.259Z,99478.22
2018-12-21T07:22:59.712Z,99473.16
2018-12-21T07:24:02.207Z,99473.73
2018-12-21T07:25:06.230Z,99475.11
2018-12-21T07:26:08.761Z,99470.41
2018-12-21T07:27:11.245Z,99473.97
2018-12-21T07:28:13.715Z,99470.19
2018-12-21T07:29:16.194Z,99464.69
2018-12-21T07:30:18.682Z,99462.52
2018-12-21T07:31:21.156Z,99456.58
2018-12-21T07:32:23.641Z,99462.88
2018-12-21T07:33:26.096Z,99461.50
2018-12-21T07:34:28.568Z,99458.52
2018-12-21T07:35:31.058Z,99456.80
2018-12-21T07:36:33.534Z,99451.73
2018-12-21T07:37:36.060Z,99453.91
2018-12-21T07:38:38.553Z,99450.81
2018-12-21T07:39:41.050Z,99444.73
2018-12-21T07:40:43.558Z,99443.13
2018-12-21T07:41:46.052Z,99440.38
2018-12-21T07:42:48.522Z,99443.35
2018-12-21T07:43:51.009Z,99439.01
2018-12-21T07:44:53.489Z,99438.65
2018-12-21T07:45:56.002Z,99436.83
2018-12-21T07:46:58.490Z,99432.48
2018-12-21T07:48:00.943Z,99426.41
2018-12-21T07:49:03.520Z,99428.36
2018-12-21T07:50:06.319Z,99425.03
2018-12-21T07:51:08.836Z,99427.92
2018-12-21T07:52:11.292Z,99428.49
2018-12-21T07:53:13.781Z,99414.52
2018-12-21T07:54:16.258Z,99420.81
2018-12-21T07:55:18.741Z,99414.52
2018-12-21T07:56:21.455Z,99404.54
2018-12-21T07:57:23.913Z,99409.69
2018-12-21T07:58:26.375Z,99405.56
2018-12-21T07:59:28.939Z,99404.63
2018-12-21T08:00:31.474Z,99396.23
2018-12-21T08:01:33.970Z,99397.97
2018-12-21T08:02:36.442Z,99391.89
2018-12-21T08:03:38.915Z,99384.80
2018-12-21T08:04:41.364Z,99388.92
2018-12-21T08:05:43.830Z,99383.06
2018-12-21T08:06:46.378Z,99373.66
2018-12-21T08:07:48.846Z,99373.22
2018-12-21T08:08:51.321Z,99368.29
2018-12-21T08:09:53.790Z,99368.65
2018-12-21T08:10:56.263Z,99364.52
2018-12-21T08:11:58.739Z,99362.92
2018-12-21T08:13:01.445Z,99359.16
2018-12-21T08:14:03.919Z,99351.70
2018-12-21T08:15:06.390Z,99347.22
2018-12-21T08:16:08.885Z,99343.67
2018-12-21T08:17:11.412Z,99338.84
2018-12-21T08:18:13.886Z,99343.18
2018-12-21T08:19:16.359Z,99333.55
2018-12-21T08:20:18.812Z,99325.88
2018-12-21T08:21:21.274Z,99329.65
2018-12-21T08:22:23.766Z,99321.17
2018-12-21T08:23:26.286Z,99323.34
2018-12-21T08:24:28.776Z,99325.30
2018-12-21T08:25:31.245Z,99321.17
2018-12-21T08:26:33.728Z,99322.11
2018-12-21T08:27:36.230Z,99317.19
2018-12-21T08:28:38.689Z,99316.17
2018-12-21T08:29:41.158Z,99314.58
2018-12-21T08:30:43.626Z,99306.55
2018-12-21T08:31:46.079Z,99306.41
2018-12-21T08:32:48.574Z,99294.75
2018-12-21T08:33:51.061Z,99284.19
2018-12-21T08:34:53.582Z,99267.11
2018-12-21T08:35:56.120Z,99258.49
2018-12-21T08:36:58.591Z,99259.87
2018-12-21T08:38:01.086Z,99258.13
2018-12-21T08:39:05.006Z,99266.38
2018-12-21T08:40:08.196Z,99267.43
2018-12-21T08:41:10.751Z,99274.06
2018-12-21T08:42:13.238Z,99267.18
2018-12-21T08:43:15.792Z,99262.48
2018-12-21T08:44:18.262Z,99262.26
2018-12-21T08:45:20.715Z,99257.55
2018-12-21T08:46:23.184Z,99232.36
2018-12-21T08:47:25.668Z,99242.78
2018-12-21T08:48:28.158Z,99245.32
2018-12-21T08:49:32.376Z,99225.84
2018-12-21T08:50:35.031Z,99242.35
2018-12-21T08:51:37.518Z,99248.51
2018-12-21T08:52:40.004Z,99250.24
2018-12-21T08:53:42.509Z,99251.58
2018-12-21T08:54:44.964Z,99245.98
2018-12-21T08:55:47.450Z,99247.55
2018-12-21T08:56:49.923Z,99246.23
2018-12-21T08:57:52.412Z,99241.89
2018-12-21T08:58:54.921Z,99250.44
2018-12-21T08:59:57.413Z,99243.64
2018-12-21T09:00:59.889Z,99235.59
2018-12-21T09:02:02.348Z,99231.35
2018-12-21T09:03:04.837Z,99236.16
2018-12-21T09:04:07.429Z,99229.46
2018-12-21T09:05:10.053Z,99223.76
2018-12-21T09:06:18.452Z,99227.91
2018-12-21T09:07:17.033Z,99223.60
2018-12-21T09:08:19.514Z,99223.95
2018-12-21T09:09:21.992Z,99214.03
2018-12-21T09:10:24.466Z,99220.80
2018-12-21T09:11:26.944Z,99211.67
2018-12-21T09:12:29.417Z,99210.07
2018-12-21T09:13:31.902Z,99205.28
2018-12-21T09:14:34.390Z,99200.72
2018-12-21T09:15:36.862Z,99210.55
2018-12-21T09:16:39.344Z,99200.59
2018-12-21T09:17:41.833Z,99209.27
2018-12-21T09:18:44.302Z,99198.52
2018-12-21T09:19:46.790Z,99202.64
2018-12-21T09:20:49.273Z,99201.45
2018-12-21T09:21:51.747Z,99200.46
2018-12-21T09:22:54.219Z,99202.19
2018-12-21T09:24:01.131Z,99201.23
2018-12-21T09:25:01.182Z,99195.16
2018-12-21T09:26:03.733Z,99201.82
2018-12-21T09:27:06.270Z,99200.23
2018-12-21T09:28:08.816Z,99196.89
2018-12-21T09:29:11.356Z,99194.25
2018-12-21T09:30:14.082Z,99185.97
2018-12-21T09:31:16.697Z,99182.89
2018-12-21T09:32:19.171Z,99194.94
2018-12-21T09:33:21.625Z,99192.11
2018-12-21T09:34:24.108Z,99191.97
2018-12-21T09:35:26.608Z,99194.36
2018-12-21T09:36:29.143Z,99187.94
2018-12-21T09:37:31.603Z,99182.07
2018-12-21T09:38:34.074Z,99189.53
2018-12-21T09:39:36.553Z,99189.31
2018-12-21T09:40:39.128Z,99181.49
2018-12-21T09:41:41.579Z,99185.84
2018-12-21T09:42:44.105Z,99181.86
2018-12-21T09:43:46.632Z,99177.15
2018-12-21T09:44:52.679Z,99174.47
2018-12-21T09:45:53.635Z,99164.83
2018-12-21T09:46:56.110Z,99165.63
2018-12-21T09:47:58.582Z,99172.73
2018-12-21T09:49:01.051Z,99175.84
2018-12-21T09:50:04.066Z,99167.44
2018-12-21T09:51:06.536Z,99174.60
2018-12-21T09:52:09.010Z,99167.14
2018-12-21T09:53:11.479Z,99172.16
2018-12-21T09:54:13.964Z,99166.20
2018-12-21T09:55:16.437Z,99156.56
2018-12-21T09:56:18.915Z,99153.80
2018-12-21T09:57:21.382Z,99155.19
2018-12-21T09:58:23.850Z,99150.72
2018-12-21T09:59:26.341Z,99152.58
2018-12-21T10:00:28.800Z,99148.60
2018-12-21T10:01:31.305Z,99147.02
2018-12-21T10:02:35.896Z,99147.59
2018-12-21T10:03:38.308Z,99148.39
2018-12-21T10:04:40.774Z,99147.23
2018-12-21T10:05:43.246Z,99151.56
2018-12-21T10:06:45.738Z,99148.60
2018-12-21T10:07:48.188Z,99147.95
2018-12-21T10:08:50.659Z,99143.83
2018-12-21T10:09:53.149Z,99145.78
2018-12-21T10:10:55.630Z,99149.55
2018-12-21T10:11:58.114Z,99154.84
2018-12-21T10:13:00.605Z,99153.25
2018-12-21T10:14:03.083Z,99147.52
2018-12-21T10:15:07.021Z,99139.84
2018-12-21T10:16:09.492Z,99141.80
2018-12-21T10:17:11.987Z,99139.42
2018-12-21T10:18:14.455Z,99137.36
2018-12-21T10:19:16.927Z,99137.73
2018-12-21T10:20:20.082Z,99134.18
2018-12-21T10:21:22.797Z,99134.33
2018-12-21T10:22:25.302Z,99130.42
2018-12-21T10:23:27.788Z,99126.72
2018-12-21T10:24:30.255Z,99119.63
2018-12-21T10:25:32.746Z,99117.67
2018-12-21T10:26:35.228Z,99121.80
2018-12-21T10:27:37.716Z,99107.83
2018-12-21T10:28:40.186Z,99119.05
2018-12-21T10:29:42.675Z,99110.94
2018-12-21T10:30:45.169Z,99121.00
2018-12-21T10:31:47.646Z,99117.23
2018-12-21T10:32:50.142Z,99116.87
2018-12-21T10:33:52.610Z,99112.90
2018-12-21T10:34:55.078Z,99109.14
2018-12-21T10:35:57.563Z,99115.00
2018-12-21T10:37:00.559Z,99113.98
2018-12-21T10:38:03.233Z,99127.31
2018-12-21T10:39:06.461Z,99132.23
2018-12-21T10:40:08.993Z,99129.27
2018-12-21T10:41:11.458Z,99115.84
2018-12-21T10:42:13.950Z,99115.84
2018-12-21T10:43:16.442Z,99110.13
2018-12-21T10:44:18.928Z,99102.92
2018-12-21T10:45:21.401Z,99100.72
2018-12-21T10:46:23.872Z,99105.67
2018-12-21T10:47:26.329Z,99108.42
2018-12-21T10:48:28.799Z,99103.25
2018-12-21T10:49:32.011Z,99108.75
2018-12-21T10:50:34.770Z,99114.25
2018-12-21T10:51:37.241Z,99123.23
2018-12-21T10:52:39.713Z,99117.52
2018-12-21T10:53:46.524Z,99114.77
2018-12-21T10:54:46.808Z,99111.59
2018-12-21T10:55:49.281Z,99101.53
2018-12-21T10:56:51.868Z,99105.66
2018-12-21T10:57:54.354Z,99104.28
2018-12-21T10:58:56.846Z,99108.19
2018-12-21T10:59:59.341Z,99098.12
2018-12-21T11:01:01.883Z,99104.21
2018-12-21T11:02:04.340Z,99115.79
2018-12-21T11:03:06.792Z,99106.95
2018-12-21T11:04:09.411Z,99112.83
2018-12-21T11:05:12.065Z,99105.95
2018-12-21T11:06:14.631Z,99113.62
2018-12-21T11:07:17.108Z,99108.12
2018-12-21T11:08:19.578Z,99101.24
2018-12-21T11:09:22.085Z,99097.91
2018-12-21T11:10:24.629Z,99109.50
2018-12-21T11:11:27.178Z,99107.08
2018-12-21T11:12:29.643Z,99105.70
2018-12-21T11:13:32.110Z,99098.61
2018-12-21T11:14:34.697Z,99105.84
2018-12-21T11:15:37.281Z,99092.89
2018-12-21T11:16:39.881Z,99094.05
2018-12-21T11:17:43.955Z,99094.05
2018-12-21T11:18:46.719Z,99098.75
2018-12-21T11:19:49.210Z,99100.06
2018-12-21T11:20:51.697Z,99108.31
2018-12-21T11:21:54.177Z,99097.09
2018-12-21T11:22:56.636Z,99098.25
2018-12-21T11:23:59.241Z,99106.50
2018-12-21T11:25:02.251Z,99107.63
2018-12-21T11:26:04.808Z,99103.50
2018-12-21T11:27:07.355Z,99095.25
2018-12-21T11:28:09.813Z,99103.07
2018-12-21T11:29:12.300Z,99100.11
2018-12-21T11:30:14.791Z,99098.62
2018-12-21T11:31:17.244Z,99100.52
2018-12-21T11:32:19.710Z,99096.53
2018-12-21T11:33:22.184Z,99102.75
2018-12-21T11:34:24.650Z,99105.40
2018-12-21T11:35:27.149Z,99098.67
2018-12-21T11:36:29.626Z,99098.02
2018-12-21T11:37:32.099Z,99096.78
2018-12-21T11:38:34.583Z,99094.40
2018-12-21T11:39:37.035Z,99093.53
2018-12-21T11:40:39.526Z,99105.43
2018-12-21T11:41:42.002Z,99095.59
2018-12-21T11:42:44.493Z,99106.38
2018-12-21T11:43:46.966Z,99097.69
2018-12-21T11:44:49.457Z,99106.16
2018-12-21T11:45:51.966Z,99094.94
2018-12-21T11:46:54.460Z,99100.88
2018-12-21T11:47:56.929Z,99101.89
2018-12-21T11:48:59.398Z,99103.84
2018-12-21T11:50:01.866Z,99094.44
2018-12-21T11:51:04.361Z,99100.40
2018-12-21T11:52:06.865Z,99094.08
2018-12-21T11:53:09.357Z,99096.28
2018-12-21T11:54:11.834Z,99088.03
2018-12-21T11:55:14.320Z,99100.40
2018-12-21T11:56:16.797Z,99108.64
2018-12-21T11:57:19.268Z,99100.40
2018-12-21T11:58:21.754Z,99089.16
2018-12-21T11:59:24.214Z,99101.30
2018-12-21T12:00:26.686Z,99110.92
2018-12-21T12:01:29.164Z,99111.65
2018-12-21T12:02:31.639Z,99104.78
2018-12-21T12:03:34.137Z,99100.88
2018-12-21T12:04:36.594Z,99104.63
2018-12-21T12:05:39.074Z,99111.86
2018-12-21T12:06:41.581Z,99105.79
2018-12-21T12:07:44.034Z,99111.14
2018-12-21T12:08:46.511Z,99114.14
2018-12-21T12:09:49.000Z,99111.61